Terminal Aerodrome Forecast
Issued by NWS Albany, NY

Home | Current Version | Previous Version | Text Only | Print | Product List | Glossary On
Versions: 1 2 3 4 5 6 7 8 9 10 11 12 13 14 15 16
913
FTUS41 KALY 050539
TAFGFL
TAF
KGFL 050539Z 0506/0606 00000KT P6SM BKN250
     FM050700 VRB03KT P6SM VCSH OVC050
     FM050900 VRB03KT 2SM -SN BR OVC015
      TEMPO 0509/0512 1/2SM SN OVC007
     FM051200 VRB03KT 1SM -SN BR OVC007
     FM051600 19005KT 5SM -SN BR OVC025
     FM051900 25006KT P6SM BKN025=

USA.gov is the U.S. government's official web portal to all federal, state and local government web resources and services.